Latest Weather Observations for Lucas Heights

IDN60901

Issued at 12:41 pm EDT Sunday 14 February 2016 (issued every 10 minutes, with the page automatically refreshed every 10 minutes)

About weather observations | Map of Sydney area stations | Latest observations for Sydney area | Other Formats
Station Details ID: 066023 Name: LUCAS HEIGHTS AWS Lat: -34.05 Lon: 150.98 Height: 140.0 m
Data from the previous 72 hours. | See also: Recent months for locations in New South Wales
Date/Time
EDT
Tmp

°C
App
Tmp
°C
Dew
Point
°C
Rel
Hum
%
Delta-T

°C
Wind Press
QNH
hPa
Press
MSL
hPa
Rain
since
9 am
mm
Dir
 
Spd
km/h
Gust
km/h
Spd
kts
Gust
kts
14/12:15pm 32.4 34.6 19.6 46 8.5 W 7 17 4 9 1007.1 - 0.0
14/12:00pm 31.5 33.0 19.7 49 7.8 W 11 19 6 10 1007.2 - 0.0
14/11:45am 30.9 32.4 19.8 51 7.3 W 11 19 6 10 1007.3 - 0.0
14/11:30am 30.2 31.8 19.9 54 6.8 W 11 17 6 9 1007.5 - 0.0
14/11:15am 29.3 30.6 19.4 55 6.5 WNW 11 19 6 10 1007.5 - 0.0
14/11:00am 28.5 29.6 18.9 56 6.2 W 11 15 6 8 1007.7 - 0.0
14/10:45am 27.9 29.1 18.3 56 6.2 NW 9 15 5 8 1007.8 - 0.0
14/10:30am 27.3 28.3 17.7 55 6.1 NW 9 15 5 8 1007.9 - 0.0
14/10:15am 26.9 27.8 16.6 53 6.4 NW 7 13 4 7 1008.1 - 0.0
14/10:00am 25.9 26.3 15.3 52 6.4 WNW 7 13 4 7 1008.2 - 0.0
14/09:45am 25.2 24.9 13.2 47 7.0 WNW 7 13 4 7 1008.2 - 0.0
14/09:30am 24.3 23.4 11.3 44 7.3 WNW 7 11 4 6 1008.3 - 0.0
14/09:15am 23.6 22.1 9.1 39 7.9 WNW 7 13 4 7 1008.4 - 0.0
14/09:00am 23.0 21.0 7.1 36 8.3 WNW 7 11 4 6 1008.5 - 0.0
14/08:45am 22.5 19.8 5.4 33 8.6 NW 9 13 5 7 1008.4 - 0.0
14/08:30am 22.2 19.3 4.6 31 8.7 NW 9 17 5 9 1008.4 - 0.0
14/08:15am 22.3 18.4 1.2 24 9.8 NW 11 17 6 9 1008.3 - 0.0
14/08:00am 21.7 17.3 -2.7 19 10.4 NW 11 17 6 9 1008.3 - 0.0
14/07:45am 21.2 17.1 -3.2 19 10.3 WNW 9 13 5 7 1008.3 - 0.0
14/07:30am 20.4 15.9 -3.4 20 9.9 WNW 11 13 6 7 1008.4 - 0.0
14/07:15am 20.0 15.5 -3.4 20 9.7 W 11 13 6 7 1008.5 - 0.0
14/07:00am 20.0 15.9 -3.2 20 9.7 WNW 9 13 5 7 1008.3 - 0.0
14/06:45am 19.7 15.6 -3.3 21 9.5 WNW 9 11 5 6 1008.2 - 0.0
14/06:30am 19.4 15.6 -3.6 21 9.5 NNW 7 9 4 5 1008.0 - 0.0
14/06:15am 19.2 15.4 -3.8 21 9.4 NNW 7 7 4 4 1007.8 - 0.0
14/06:00am 19.2 15.6 -4.0 20 9.4 NNW 6 9 3 5 1007.8 - 0.0
14/05:45am 19.1 15.4 -4.2 20 9.4 NNW 6 7 3 4 1007.7 - 0.0
14/05:30am 19.2 15.5 -4.3 20 9.5 NNW 6 7 3 4 1007.6 - 0.0
14/05:15am 19.2 15.3 -4.4 20 9.5 NNW 7 9 4 5 1007.7 - 0.0
14/05:00am 19.3 15.4 -4.5 19 9.6 N 7 11 4 6 1007.6 - 0.0
14/04:45am 19.0 14.8 -4.3 20 9.4 N 9 11 5 6 1007.6 - 0.0
14/04:30am 19.4 15.2 -4.1 20 9.6 N 9 11 5 6 1007.6 - 0.0
14/04:15am 19.5 15.3 -3.7 20 9.5 N 9 11 5 6 1007.8 - 0.0
14/04:00am 19.8 15.3 -3.6 20 9.7 - 11 13 6 7 1007.9 - 0.0
14/03:45am 19.8 15.7 -3.0 21 9.5 N 9 13 5 7 1007.9 - 0.0
14/03:30am 20.1 16.1 -2.5 21 9.6 N 9 11 5 6 1008.0 - 0.0
14/03:15am 20.2 15.9 -2.0 22 9.5 NNE 11 13 6 7 1008.2 - 0.0
14/03:00am 20.2 16.0 -1.1 24 9.3 NNE 11 13 6 7 1008.2 - 0.0
14/02:45am 20.4 15.9 -0.2 25 9.2 NNE 13 15 7 8 1008.3 - 0.0
14/02:30am 20.5 16.1 0.2 25 9.1 NNE 13 15 7 8 1008.5 - 0.0
14/02:15am 20.5 16.5 0.3 26 9.1 NNE 11 13 6 7 1008.6 - 0.0
14/02:00am 20.4 16.1 1.0 27 8.8 NNE 13 15 7 8 1008.8 - 0.0
14/01:45am 20.5 17.0 1.4 28 8.8 N 9 13 5 7 1009.0 - 0.0
14/01:30am 20.4 16.7 2.6 30 8.4 N 11 11 6 6 1009.2 - 0.0
14/01:15am 20.6 16.9 2.6 30 8.5 N 11 13 6 7 1009.3 - 0.0
14/01:00am 20.7 16.8 3.4 32 8.3 N 13 17 7 9 1009.4 - 0.0
14/12:45am 20.8 16.7 4.1 33 8.1 N 15 17 8 9 1009.5 - 0.0
14/12:30am 20.9 17.7 5.3 36 7.8 N 11 13 6 7 1009.7 - 0.0
14/12:15am 21.2 18.2 5.9 37 7.7 N 11 13 6 7 1009.8 - 0.0
14/12:00am 21.3 18.3 6.1 37 7.7 N 11 17 6 9 1009.9 - 0.0
 
Date/Time
EDT
Tmp

°C
App
Tmp
°C
Dew
Point
°C
Rel
Hum
%
Delta-T

°C
Wind Press
QNH
hPa
Press
MSL
hPa
Rain
since
9 am
mm
Dir
 
Spd
km/h
Gust
km/h
Spd
kts
Gust
kts
13/11:45pm 21.3 18.5 6.8 39 7.4 N 11 13 6 7 1010.1 - 0.0
13/11:30pm 21.5 18.8 7.5 40 7.3 N 11 17 6 9 1010.2 - 0.0
13/11:15pm 21.7 18.7 7.9 41 7.2 NNE 13 19 7 10 1010.3 - 0.0
13/11:00pm 21.7 19.3 8.5 42 7.0 N 11 17 6 9 1010.5 - 0.0
13/10:45pm 21.9 19.8 9.7 45 6.6 N 11 15 6 8 1010.5 - 0.0
13/10:30pm 22.3 19.6 10.4 47 6.6 NNE 15 20 8 11 1010.6 - 0.0
13/10:15pm 22.6 20.1 11.2 48 6.4 NNE 15 19 8 10 1010.5 - 0.0
13/10:00pm 22.7 20.2 11.1 48 6.5 NNE 15 22 8 12 1010.4 - 0.0
13/09:45pm 22.8 19.9 11.1 47 6.5 NE 17 22 9 12 1010.3 - 0.0
13/09:30pm 22.9 20.4 11.1 47 6.6 NE 15 22 8 12 1010.2 - 0.0
13/09:15pm 23.1 20.7 11.4 47 6.6 NE 15 24 8 13 1010.1 - 0.0
13/09:00pm 23.3 21.6 12.3 50 6.3 NE 13 22 7 12 1010.0 - 0.0
13/08:45pm 23.5 21.2 13.1 52 6.0 NE 17 24 9 13 1009.9 - 0.0
13/08:30pm 23.7 21.5 14.3 55 5.6 NE 19 24 10 13 1009.8 - 0.0
13/08:15pm 24.1 23.0 15.4 58 5.3 NE 15 22 8 12 1009.7 - 0.0
13/08:00pm 24.5 22.9 16.1 59 5.1 NE 19 26 10 14 1009.5 - 0.0
13/07:45pm 25.0 23.4 16.5 59 5.3 NE 20 28 11 15 1009.3 - 0.0
13/07:30pm 25.5 24.6 16.9 59 5.4 NE 17 24 9 13 1009.2 - 0.0
13/07:15pm 25.9 25.1 17.2 58 5.5 NE 17 28 9 15 1009.1 - 0.0
13/07:00pm 26.3 26.1 17.5 58 5.5 NE 15 24 8 13 1009.2 - 0.0
13/06:45pm 26.4 25.8 17.6 58 5.6 NE 17 24 9 13 1009.2 - 0.0
13/06:30pm 26.7 25.9 17.9 58 5.6 ENE 19 24 10 13 1009.2 - 0.0
13/06:15pm 27.2 26.9 18.2 58 5.7 ENE 17 26 9 14 1009.3 - 0.0
13/06:00pm 27.2 26.5 18.2 58 5.7 NE 19 26 10 14 1009.3 - 0.0
13/05:45pm 27.7 27.1 18.5 57 5.9 ENE 19 28 10 15 1009.4 - 0.0
13/05:30pm 27.8 27.0 18.5 57 6.0 ENE 20 28 11 15 1009.5 - 0.0
13/05:15pm 28.0 27.2 18.5 56 6.1 ENE 20 30 11 16 1009.6 - 0.0
13/05:00pm 28.0 27.5 18.6 56 6.1 ENE 19 28 10 15 1009.7 - 0.0
13/04:45pm 28.6 28.2 18.9 55 6.3 ENE 19 28 10 15 1009.7 - 0.0
13/04:30pm 28.9 28.4 19.1 55 6.4 NE 20 30 11 16 1009.8 - 0.0
13/04:15pm 29.3 28.9 19.4 55 6.5 ENE 20 32 11 17 1009.9 - 0.0
13/04:00pm 29.5 29.4 19.6 55 6.5 ENE 19 28 10 15 1010.0 - 0.0
13/03:45pm 29.4 29.1 19.5 55 6.5 ENE 20 28 11 15 1010.2 - 0.0
13/03:30pm 29.9 29.6 19.6 54 6.8 ENE 20 28 11 15 1010.4 - 0.0
13/03:15pm 30.2 30.5 19.7 53 6.9 ENE 17 28 9 15 1010.6 - 0.0
13/03:00pm 30.4 30.7 19.6 52 7.1 ENE 17 24 9 13 1010.8 - 0.0
13/02:45pm 30.2 30.4 17.7 47 8.0 N 13 24 7 13 1011.1 - 0.0
13/02:30pm 30.1 30.5 17.3 46 8.1 N 11 24 6 13 1011.3 - 0.0
13/02:15pm 30.0 30.6 17.8 48 7.8 NNE 11 19 6 10 1011.6 - 0.0
13/02:00pm 29.4 29.5 17.4 48 7.6 NNE 13 19 7 10 1011.8 - 0.0
13/01:45pm 29.1 29.5 17.3 49 7.5 N 11 19 6 10 1012.0 - 0.0
13/01:30pm 28.7 29.4 17.9 52 6.9 N 11 22 6 12 1012.2 - 0.0
13/01:15pm 28.3 29.1 17.4 51 6.9 N 9 17 5 9 1012.5 - 0.0
13/01:00pm 27.9 28.4 17.5 53 6.6 NNW 11 20 6 11 1012.8 - 0.0
13/12:45pm 27.7 28.3 17.7 54 6.4 NNW 11 19 6 10 1013.0 - 0.0
13/12:30pm 27.5 28.2 17.9 55 6.1 NNW 11 17 6 9 1013.1 - 0.0
13/12:15pm 27.1 28.1 17.7 56 6.0 NW 9 19 5 10 1013.3 - 0.0
13/12:00pm 26.7 27.2 17.5 57 5.8 NNW 11 19 6 10 1013.4 - 0.0
13/11:45am 26.7 27.6 17.6 57 5.8 N 9 20 5 11 1013.6 - 0.0
13/11:30am 26.4 27.2 17.4 57 5.7 N 9 19 5 10 1013.7 - 0.0
13/11:15am 25.8 26.5 17.0 58 5.5 NNW 9 22 5 12 1013.9 - 0.0
13/11:00am 25.5 25.0 16.8 58 5.4 N 15 22 8 12 1013.9 - 0.0
13/10:45am 25.2 24.5 16.5 58 5.4 N 15 24 8 13 1013.9 - 0.0
13/10:30am 24.9 24.9 16.2 58 5.3 N 11 20 6 11 1013.9 - 0.0
13/10:15am 24.5 23.9 15.6 57 5.4 NNW 13 20 7 11 1014.0 - 0.0
13/10:00am 24.3 23.3 14.6 54 5.8 NNW 13 24 7 13 1014.0 - 0.0
13/09:45am 23.7 22.2 13.2 51 6.1 N 13 20 7 11 1014.1 - 0.0
13/09:30am 23.4 21.7 12.5 50 6.3 NNW 13 20 7 11 1014.3 - 0.0
13/09:15am 23.2 21.5 11.3 47 6.7 N 11 20 6 11 1014.3 - 0.0
13/09:00am 22.8 20.4 8.5 40 7.6 N 11 17 6 9 1014.4 - 0.0
13/08:45am 22.2 19.0 5.0 32 8.6 NNW 11 19 6 10 1014.5 - 0.0
13/08:30am 21.9 18.4 1.5 26 9.5 NNW 9 17 5 9 1014.5 - 0.0
13/08:15am 21.5 18.3 0.7 25 9.5 NNW 7 13 4 7 1014.4 - 0.0
13/08:00am 21.0 17.5 1.0 26 9.1 NNW 9 13 5 7 1014.3 - 0.0
13/07:45am 20.4 16.8 0.9 27 8.9 NNW 9 11 5 6 1014.2 - 0.0
13/07:30am 19.8 16.6 0.6 27 8.6 NNW 7 9 4 5 1014.1 - 0.0
13/07:15am 19.3 16.0 0.1 27 8.5 NNW 7 9 4 5 1014.2 - 0.0
13/07:00am 18.8 15.0 -0.5 27 8.4 NNW 9 11 5 6 1014.1 - 0.0
13/06:45am 18.9 15.1 -0.6 27 8.5 NNW 9 11 5 6 1014.0 - 0.0
13/06:30am 19.0 14.8 -0.7 26 8.6 NNW 11 11 6 6 1014.0 - 0.0
13/06:15am 18.9 14.7 -1.0 26 8.6 NNW 11 13 6 7 1013.9 - 0.0
13/06:00am 19.1 14.9 -1.1 25 8.7 NNW 11 11 6 6 1013.7 - 0.0
13/05:45am 19.2 15.0 -1.1 25 8.8 NNW 11 11 6 6 1013.7 - 0.0
13/05:30am 19.3 15.4 -1.3 25 8.9 NNW 9 13 5 7 1013.7 - 0.0
13/05:15am 19.2 15.9 -1.3 25 8.8 NNW 6 9 3 5 1013.7 - 0.0
13/05:00am 19.5 16.0 -1.2 24 8.9 N 7 9 4 5 1013.8 - 0.0
13/04:45am 19.9 16.4 -1.1 24 9.1 NNW 7 13 4 7 1013.9 - 0.0
13/04:30am 20.1 15.9 -1.1 24 9.2 NNW 11 13 6 7 1014.0 - 0.0
13/04:15am 20.1 16.3 -1.0 24 9.2 NNW 9 11 5 6 1014.1 - 0.0
13/04:00am 20.2 16.7 -1.0 24 9.3 N 7 13 4 7 1014.1 - 0.0
13/03:45am 20.1 15.8 -1.3 23 9.3 N 11 15 6 8 1014.1 - 0.0
13/03:30am 19.8 15.9 -1.5 23 9.2 N 9 15 5 8 1014.2 - 0.0
13/03:15am 19.7 15.8 -1.3 24 9.1 NNW 9 13 5 7 1014.2 - 0.0
13/03:00am 20.0 16.2 -1.1 24 9.2 N 9 13 5 7 1014.3 - 0.0
13/02:45am 20.2 16.0 -1.0 24 9.3 N 11 13 6 7 1014.3 - 0.0
13/02:30am 20.3 16.1 -0.7 24 9.2 N 11 13 6 7 1014.5 - 0.0
13/02:15am 20.4 16.2 -0.6 24 9.3 N 11 15 6 8 1014.7 - 0.0
13/02:00am 20.5 16.8 0.0 25 9.2 N 9 13 5 7 1014.8 - 0.0
13/01:45am 20.6 16.6 0.5 26 9.1 N 11 13 6 7 1014.9 - 0.0
13/01:30am 20.8 17.0 1.6 28 8.9 - 11 15 6 8 1015.0 - 0.0
13/01:15am 21.1 17.4 2.2 28 8.9 N 11 13 6 7 1015.1 - 0.0
13/01:00am 21.5 18.3 2.8 29 8.9 N 9 15 5 8 1015.3 - 0.0
13/12:45am 21.4 18.6 3.3 30 8.7 N 7 13 4 7 1015.4 - 0.0
13/12:30am 21.5 18.1 3.9 31 8.6 N 11 17 6 9 1015.5 - 0.0
13/12:15am 21.7 18.3 4.1 31 8.6 NNE 11 17 6 9 1015.5 - 0.0
13/12:00am 21.6 18.3 4.7 33 8.3 N 11 17 6 9 1015.5 - 0.0
 
Date/Time
EDT
Tmp

°C
App
Tmp
°C
Dew
Point
°C
Rel
Hum
%
Delta-T

°C
Wind Press
QNH
hPa
Press
MSL
hPa
Rain
since
9 am
mm
Dir
 
Spd
km/h
Gust
km/h
Spd
kts
Gust
kts
12/11:45pm 22.0 19.6 5.4 34 8.3 - 7 15 4 8 1015.4 - 0.0
12/11:30pm 22.3 19.6 5.4 33 8.5 NE 9 17 5 9 1015.4 - 0.0
12/11:15pm 22.1 19.1 5.8 34 8.2 NE 11 17 6 9 1015.4 - 0.0
12/11:00pm 22.2 20.0 6.4 36 8.1 NNE 7 11 4 6 1015.7 - 0.0
12/10:45pm 22.3 19.1 6.8 36 8.0 NNE 13 19 7 10 1015.8 - 0.0
12/10:30pm 22.4 19.3 7.2 37 7.9 NE 13 20 7 11 1015.9 - 0.0
12/10:15pm 22.4 18.5 7.1 37 7.9 NE 17 22 9 12 1015.9 - 0.0
12/10:00pm 22.4 19.4 7.5 38 7.8 NE 13 20 7 11 1015.7 - 0.0
12/09:45pm 22.5 18.8 7.9 39 7.7 NE 17 26 9 14 1015.5 - 0.0
12/09:30pm 22.5 18.9 8.4 40 7.5 ENE 17 26 9 14 1015.3 - 0.0
12/09:15pm 22.6 18.8 9.1 42 7.3 ENE 19 28 10 15 1015.1 - 0.0
12/09:00pm 22.7 18.8 9.6 43 7.1 ENE 20 30 11 16 1015.0 - 0.0
12/08:45pm 22.8 19.3 10.2 44 6.9 ENE 19 28 10 15 1014.8 - 0.0
12/08:30pm 23.0 20.1 11.0 46 6.7 ENE 17 24 9 13 1014.9 - 0.0
12/08:15pm 23.2 20.6 12.0 49 6.4 ENE 17 24 9 13 1014.9 - 0.0
12/08:00pm 23.4 20.7 12.9 51 6.1 ENE 19 26 10 14 1014.7 - 0.0
12/07:45pm 23.8 21.7 13.7 53 5.9 ENE 17 28 9 15 1014.5 - 0.0
12/07:30pm 24.1 22.0 14.6 55 5.7 ENE 19 28 10 15 1014.2 - 0.0
12/07:15pm 24.6 22.9 15.8 58 5.4 ENE 19 28 10 15 1014.2 - 0.0
12/07:00pm 25.0 23.6 16.5 59 5.3 ENE 19 28 10 15 1014.1 - 0.0
12/06:45pm 25.3 23.9 17.0 60 5.2 ENE 20 30 11 16 1014.0 - 0.0
12/06:30pm 25.8 24.6 17.6 60 5.2 ENE 20 28 11 15 1013.9 - 0.0
12/06:15pm 26.2 25.4 17.9 60 5.3 ENE 19 28 10 15 1013.8 - 0.0
12/06:00pm 26.3 25.5 18.0 60 5.3 ENE 19 28 10 15 1013.7 - 0.0
12/05:45pm 26.6 25.8 18.1 59 5.4 ENE 19 28 10 15 1013.8 - 0.0
12/05:30pm 26.9 26.5 18.1 58 5.6 ENE 17 26 9 14 1013.8 - 0.0
12/05:15pm 27.0 26.2 18.1 58 5.7 ENE 19 24 10 13 1013.8 - 0.0
12/05:00pm 26.9 26.1 18.0 58 5.7 ENE 19 28 10 15 1013.8 - 0.0
12/04:45pm 27.2 26.0 18.3 58 5.7 ENE 22 33 12 18 1013.8 - 0.0
12/04:30pm 27.5 26.8 18.6 58 5.7 ENE 20 30 11 16 1013.9 - 0.0
12/04:15pm 27.4 26.3 18.6 58 5.7 ENE 22 30 12 16 1014.0 - 0.0
12/04:00pm 27.5 26.4 18.6 58 5.7 ENE 22 30 12 16 1014.2 - 0.0
12/03:45pm 27.7 26.6 18.6 57 5.9 ENE 22 33 12 18 1014.4 - 0.0
12/03:30pm 27.8 27.1 18.7 57 5.9 ENE 20 28 11 15 1014.5 - 0.0
12/03:15pm 27.9 26.8 18.7 57 5.9 ENE 22 32 12 17 1014.5 - 0.0
12/03:00pm 28.3 28.3 19.0 57 6.0 E 17 28 9 15 1014.6 - 0.0
12/02:45pm 27.9 27.2 18.6 57 6.0 ENE 20 32 11 17 1014.7 - 0.0
12/02:30pm 28.0 27.8 18.6 56 6.1 NE 17 28 9 15 1014.8 - 0.0
12/02:15pm 27.8 27.6 18.4 56 6.0 ENE 17 28 9 15 1014.9 - 0.0
12/02:00pm 28.1 28.3 18.5 56 6.2 ENE 15 22 8 12 1015.0 - 0.0
12/01:45pm 27.8 27.9 18.4 56 6.0 ENE 15 24 8 13 1015.1 - 0.0
12/01:30pm 27.5 27.7 18.5 58 5.8 ENE 15 24 8 13 1015.2 - 0.0
12/01:15pm 26.6 27.5 17.6 57 5.7 ENE 9 19 5 10 1015.5 - 0.0
12/01:00pm 27.4 28.5 17.9 56 6.0 NE 9 17 5 9 1015.7 - 0.0
12/12:45pm 27.1 27.8 17.9 57 5.8 NE 11 19 6 10 1015.9 - 0.0
12/12:30pm 26.3 26.7 17.3 57 5.7 NNE 11 20 6 11 1016.1 - 0.0
12/12:15pm 26.2 26.2 17.2 57 5.6 NNE 13 22 7 12 1016.3 - 0.0
12/12:00pm 26.2 27.5 17.6 59 5.4 N 7 17 4 9 1016.3 - 0.0
12/11:45am 25.8 27.1 17.5 60 5.2 N 7 17 4 9 1016.4 - 0.0
12/11:30am 25.5 25.9 17.2 60 5.2 - 11 17 6 9 1016.5 - 0.0
12/11:15am 26.2 27.6 17.8 60 5.3 N 7 13 4 7 1016.6 - 0.0
12/11:00am 25.2 26.3 17.1 60 5.1 N 7 13 4 7 1016.7 - 0.0
12/10:45am 24.7 25.6 16.6 60 5.0 N 7 13 4 7 1016.9 - 0.0
12/10:30am 24.6 25.5 16.5 60 5.0 N 7 13 4 7 1017.0 - 0.0
12/10:15am 25.1 26.1 16.9 60 5.1 NNW 7 17 4 9 1017.0 - 0.0
12/10:00am 24.6 25.6 16.3 60 5.1 N 6 11 3 6 1016.9 - 0.0
12/09:45am 24.1 24.7 15.7 59 5.1 N 7 13 4 7 1017.0 - 0.0
12/09:30am 24.1 23.8 12.7 49 6.6 NNW 6 11 3 6 1016.9 - 0.0
12/09:15am 24.4 25.1 16.2 60 5.0 NW 7 11 4 6 1017.0 - 0.0
12/09:00am 23.3 25.4 19.0 77 2.7 NW 6 9 3 5 1016.9 - 0.0
12/08:45am 23.0 25.4 19.6 81 2.2 NW 6 11 3 6 1016.8 - 0.0
12/08:30am 22.3 25.2 19.9 86 1.5 NNW 4 7 2 4 1016.7 - 0.0
12/08:15am 20.8 23.1 18.5 87 1.4 NNW 4 7 2 4 1016.5 - 0.0
12/08:00am 19.9 21.8 17.6 86 1.4 NW 4 4 2 2 1016.4 - 0.0
12/07:45am 19.1 21.0 16.8 86 1.4 NW 2 4 1 2 1016.2 - 0.0
12/07:30am 18.7 20.5 16.5 87 1.3 N 2 4 1 2 1015.9 - 0.0
12/07:15am 18.3 19.9 16.0 86 1.4 NNE 2 4 1 2 1015.9 - 0.0
12/07:00am 18.1 19.7 15.9 87 1.3 ENE 2 4 1 2 1015.8 - 0.0
12/06:45am 18.2 20.2 16.0 87 1.3 CALM 0 4 0 2 1015.6 - 0.0
12/06:30am 18.2 19.8 16.0 87 1.3 NE 2 4 1 2 1015.5 - 0.0
12/06:15am 18.3 19.6 16.1 87 1.3 NNE 4 4 2 2 1015.4 - 0.0
12/06:00am 18.4 19.7 16.2 87 1.3 NE 4 6 2 3 1015.2 - 0.0
12/05:45am 18.8 20.3 16.6 87 1.3 NE 4 6 2 3 1015.0 - 0.0
12/05:30am 18.8 19.9 16.5 86 1.4 NE 6 7 3 4 1014.8 - 0.0
12/05:15am 19.0 20.0 16.8 87 1.3 ENE 7 9 4 5 1014.7 - 0.0
12/05:00am 19.1 20.3 16.8 86 1.4 ENE 6 7 3 4 1014.8 - 0.0
12/04:45am 19.0 20.2 16.8 87 1.3 E 6 7 3 4 1014.8 - 0.0
12/04:30am 19.2 20.4 16.9 86 1.4 E 6 7 3 4 1014.7 - 0.0
12/04:15am 19.2 20.8 17.0 87 1.3 E 4 6 2 3 1014.9 - 0.0
12/04:00am 19.3 20.9 17.0 86 1.4 E 4 4 2 2 1015.0 - 0.0
12/03:45am 19.4 21.1 17.2 87 1.3 E 4 4 2 2 1015.1 - 0.0
12/03:30am 19.7 21.5 17.4 86 1.4 ENE 4 6 2 3 1015.1 - 0.0
12/03:15am 19.9 21.8 17.6 86 1.4 ENE 4 7 2 4 1015.2 - 0.0
12/03:00am 20.0 21.9 17.7 86 1.4 ENE 4 6 2 3 1015.2 - 0.0
12/02:45am 20.1 22.0 17.7 86 1.5 E 4 4 2 2 1015.3 - 0.0
12/02:30am 20.3 22.3 17.8 85 1.5 E 4 6 2 3 1015.4 - 0.0
12/02:15am 20.4 22.0 17.9 85 1.6 ESE 6 7 3 4 1015.4 - 0.0
12/02:00am 20.6 22.1 18.0 85 1.6 SE 7 7 4 4 1015.5 - 0.0
12/01:45am 20.7 22.4 18.0 84 1.7 ESE 6 7 3 4 1015.6 - 0.0
12/01:30am 20.8 22.9 18.0 84 1.7 ESE 4 6 2 3 1015.7 - 0.0
12/01:15am 20.8 22.7 17.7 82 1.9 ESE 4 6 2 3 1015.8 - 0.0
12/01:00am 21.2 22.9 18.1 82 1.9 E 6 7 3 4 1015.7 - 0.0
12/12:45am 21.5 23.6 18.2 81 2.1 E 4 6 2 3 1015.8 - 0.0
12/12:30am 21.6 23.2 18.2 81 2.1 E 7 9 4 5 1015.9 - 0.0
12/12:15am 21.8 23.4 18.3 80 2.2 NE 7 11 4 6 1015.8 - 0.0
12/12:00am 21.9 23.1 18.3 80 2.3 NE 9 13 5 7 1016.0 - 0.0
 
Date/Time
EDT
Tmp

°C
App
Tmp
°C
Dew
Point
°C
Rel
Hum
%
Delta-T

°C
Wind Press
QNH
hPa
Press
MSL
hPa
Rain
since
9 am
mm
Dir
 
Spd
km/h
Gust
km/h
Spd
kts
Gust
kts
11/11:45pm 22.1 23.7 18.3 79 2.4 NE 7 11 4 6 1016.4 - 0.0
11/11:30pm 22.4 24.3 18.5 78 2.5 NE 6 7 3 4 1016.5 - 0.0
11/11:15pm 22.5 23.8 18.5 78 2.5 NE 9 13 5 7 1016.5 - 0.0
11/11:00pm 22.3 23.6 18.5 79 2.4 NE 9 13 5 7 1016.5 - 0.0
11/10:45pm 22.3 23.2 18.4 78 2.5 NE 11 19 6 10 1016.5 - 0.0
11/10:30pm 22.3 24.0 18.4 78 2.5 NE 7 13 4 7 1016.4 - 0.0
11/10:15pm 22.4 23.7 18.5 78 2.5 ENE 9 15 5 8 1016.2 - 0.0
11/10:00pm 22.6 23.6 18.6 78 2.5 NE 11 17 6 9 1016.2 - 0.0
11/09:45pm 22.7 23.8 18.8 78 2.5 ENE 11 19 6 10 1016.0 - 0.0
11/09:30pm 22.8 24.7 18.9 78 2.5 ENE 7 17 4 9 1015.8 - 0.0
11/09:15pm 22.8 23.8 18.7 77 2.6 E 11 17 6 9 1015.5 - 0.0
11/09:00pm 22.8 23.8 18.7 77 2.6 ENE 11 19 6 10 1015.3 - 0.0
11/08:45pm 22.8 23.7 18.5 77 2.7 ENE 11 17 6 9 1015.2 - 0.0
11/08:30pm 22.9 24.2 18.4 76 2.8 ENE 9 13 5 7 1015.1 - 0.0
11/08:15pm 23.0 23.5 18.3 75 3.0 ENE 13 17 7 9 1015.0 - 0.0
11/08:00pm 23.2 23.3 18.3 74 3.1 ENE 15 22 8 12 1014.9 - 0.0
11/07:45pm 23.3 23.9 18.7 75 2.9 E 13 22 7 12 1014.9 - 0.0
11/07:30pm 23.3 23.6 18.7 75 2.9 E 15 20 8 11 1014.9 - 0.0
11/07:15pm 23.4 24.0 18.7 75 3.0 E 13 24 7 13 1014.5 - 0.0
11/07:00pm 23.4 23.2 18.6 74 3.0 E 17 24 9 13 1014.1 - 0.0
11/06:45pm 23.4 24.0 18.7 75 3.0 E 13 20 7 11 1013.9 - 0.0
11/06:30pm 23.4 23.2 18.6 74 3.0 E 17 24 9 13 1013.7 - 0.0
11/06:15pm 23.4 23.2 18.5 74 3.1 E 17 22 9 12 1013.9 - 0.0
11/06:00pm 23.5 23.6 18.4 73 3.2 E 15 22 8 12 1014.0 - 0.0
11/05:45pm 23.7 23.8 18.4 72 3.4 E 15 24 8 13 1014.0 - 0.0
11/05:30pm 23.8 23.0 18.1 70 3.6 E 19 28 10 15 1014.0 - 0.0
11/05:15pm 24.2 23.2 17.9 68 4.0 E 20 30 11 16 1013.8 - 0.0
11/05:00pm 24.8 24.3 17.8 65 4.4 E 17 24 9 13 1013.8 - 0.0
11/04:45pm 25.5 24.8 17.3 60 5.1 E 17 24 9 13 1013.5 - 0.0
11/04:30pm 25.8 25.0 17.0 58 5.5 ENE 17 28 9 15 1013.5 - 0.0
11/04:15pm 26.5 25.4 17.4 57 5.7 ENE 19 32 10 17 1013.5 - 0.0
11/04:00pm 26.5 25.5 17.5 57 5.7 ENE 19 26 10 14 1013.5 - 0.0
11/03:45pm 26.7 25.9 17.9 58 5.6 ENE 19 26 10 14 1013.5 - 0.0
11/03:30pm 26.5 25.6 17.8 58 5.5 ENE 19 33 10 18 1013.7 - 0.0
11/03:15pm 26.9 26.0 17.7 57 5.8 E 19 28 10 15 1013.9 - 0.0
11/03:00pm 27.3 27.3 18.2 57 5.8 E 15 26 8 14 1014.0 - 0.0
11/02:45pm 27.4 26.9 17.7 55 6.2 ENE 17 24 9 13 1014.1 - 0.0
11/02:30pm 27.2 26.6 17.6 55 6.1 ENE 17 24 9 13 1014.2 - 0.0
11/02:15pm 27.1 26.6 17.0 54 6.3 ENE 15 28 8 15 1014.3 - 0.0
11/02:00pm 27.3 26.4 16.9 53 6.5 ENE 17 24 9 13 1014.4 - 0.0
11/01:45pm 26.9 26.1 17.2 55 6.1 NE 17 22 9 12 1014.5 - 0.0
11/01:30pm 27.1 26.7 17.2 54 6.2 NE 15 24 8 13 1014.6 - 0.0
11/01:15pm 27.3 27.0 17.4 54 6.3 ENE 15 24 8 13 1014.7 - 0.0
11/01:00pm 26.5 26.3 16.8 55 6.1 NE 13 22 7 12 1014.9 - 0.0
11/12:45pm 26.3 25.8 17.0 56 5.8 ENE 15 22 8 12 1015.0 - 0.0

Latest Capital City Observations: Canberra | Sydney | Melbourne | Brisbane | Adelaide | Perth | Hobart | Darwin

Other Formats:

Comma delimited format used in spreadsheet applications
http://www.bom.gov.au/fwo/IDN60901/IDN60901.95757.axf

JavaScript Object Notation format (JSON) in row-major order
http://www.bom.gov.au/fwo/IDN60901/IDN60901.95757.json